createdAt,value
2018-06-10T00:00:44.643Z,21.51
2018-06-10T00:01:44.113Z,21.43
2018-06-10T00:02:44.164Z,21.46
2018-06-10T00:03:44.380Z,21.40
2018-06-10T00:04:44.191Z,21.37
2018-06-10T00:05:44.616Z,21.28
2018-06-10T00:06:44.113Z,21.21
2018-06-10T00:07:44.116Z,21.27
2018-06-10T00:08:44.327Z,21.28
2018-06-10T00:09:44.063Z,21.34
2018-06-10T00:10:44.104Z,21.43
2018-06-10T00:11:44.116Z,21.46
2018-06-10T00:12:44.386Z,21.45
2018-06-10T00:13:44.182Z,21.21
2018-06-10T00:14:43.801Z,21.38
2018-06-10T00:15:44.175Z,21.34
2018-06-10T00:16:44.139Z,21.37
2018-06-10T00:17:44.196Z,21.42
2018-06-10T00:18:44.073Z,21.21
2018-06-10T00:19:43.778Z,21.13
2018-06-10T00:20:44.243Z,21.22
2018-06-10T00:21:44.161Z,21.22
2018-06-10T00:22:44.214Z,21.19
2018-06-10T00:23:44.301Z,21.18
2018-06-10T00:24:44.194Z,21.15
2018-06-10T00:25:44.291Z,21.27
2018-06-10T00:26:44.274Z,21.22
2018-06-10T00:27:44.158Z,21.18
2018-06-10T00:28:44.281Z,21.08
2018-06-10T00:29:44.237Z,21.09
2018-06-10T00:30:44.204Z,21.03
2018-06-10T00:31:44.229Z,21.05
2018-06-10T00:32:44.790Z,21.00
2018-06-10T00:33:44.297Z,20.91
2018-06-10T00:34:44.287Z,20.88
2018-06-10T00:35:44.296Z,21.09
2018-06-10T00:36:44.117Z,21.01
2018-06-10T00:37:44.134Z,21.03
2018-06-10T00:38:44.141Z,21.15
2018-06-10T00:39:44.318Z,21.16
2018-06-10T00:40:44.156Z,21.24
2018-06-10T00:41:44.113Z,21.30
2018-06-10T00:42:44.129Z,21.21
2018-06-10T00:43:44.142Z,21.15
2018-06-10T00:44:44.119Z,21.08
2018-06-10T00:45:44.137Z,21.08
2018-06-10T00:46:44.148Z,21.01
2018-06-10T00:47:44.140Z,21.15
2018-06-10T00:48:44.186Z,21.05
2018-06-10T00:49:44.201Z,20.87
2018-06-10T00:50:44.140Z,20.83
2018-06-10T00:51:44.304Z,21.00
2018-06-10T00:52:44.163Z,21.00
2018-06-10T00:53:44.303Z,21.00
2018-06-10T00:54:44.196Z,21.05
2018-06-10T00:55:44.250Z,21.00
2018-06-10T00:56:44.296Z,20.93
2018-06-10T00:57:44.173Z,21.01
2018-06-10T00:58:43.855Z,20.98
2018-06-10T00:59:44.249Z,20.98
2018-06-10T01:00:44.306Z,21.18
2018-06-10T01:01:44.301Z,21.09
2018-06-10T01:02:44.273Z,21.08
2018-06-10T01:03:44.280Z,20.90
2018-06-10T01:04:44.308Z,21.03
2018-06-10T01:05:44.301Z,21.12
2018-06-10T01:06:43.945Z,21.12
2018-06-10T01:07:43.949Z,21.06
2018-06-10T01:08:44.307Z,20.91
2018-06-10T01:09:44.198Z,21.00
2018-06-10T01:10:44.310Z,21.06
2018-06-10T01:11:44.300Z,21.08
2018-06-10T01:12:43.863Z,21.00
2018-06-10T01:13:42.802Z,20.94
2018-06-10T01:14:44.199Z,20.90
2018-06-10T01:15:44.318Z,21.01
2018-06-10T01:16:44.219Z,21.15
2018-06-10T01:17:44.243Z,21.11
2018-06-10T01:18:44.195Z,21.01
2018-06-10T01:19:44.252Z,21.06
2018-06-10T01:20:44.219Z,20.91
2018-06-10T01:21:44.169Z,20.93
2018-06-10T01:22:44.217Z,21.00
2018-06-10T01:23:44.226Z,21.05
2018-06-10T01:24:44.316Z,20.83
2018-06-10T01:25:44.233Z,20.69
2018-06-10T01:26:44.243Z,20.57
2018-06-10T01:27:44.303Z,20.37
2018-06-10T01:28:44.282Z,20.31
2018-06-10T01:29:44.237Z,20.25
2018-06-10T01:30:44.264Z,20.44
2018-06-10T01:31:44.236Z,20.54
2018-06-10T01:32:44.528Z,20.50
2018-06-10T01:33:44.297Z,20.51
2018-06-10T01:34:44.298Z,20.50
2018-06-10T01:35:46.200Z,20.31
2018-06-10T01:36:46.340Z,20.31
2018-06-10T01:37:44.503Z,20.46
2018-06-10T01:38:44.437Z,20.48
2018-06-10T01:39:46.194Z,20.63
2018-06-10T01:40:44.311Z,20.71
2018-06-10T01:41:44.344Z,20.69
2018-06-10T01:42:44.341Z,20.83
2018-06-10T01:43:44.283Z,20.82
2018-06-10T01:44:44.351Z,20.61
2018-06-10T01:45:44.237Z,20.68
2018-06-10T01:46:43.911Z,20.76
2018-06-10T01:47:44.285Z,20.83
2018-06-10T01:48:44.283Z,20.81
2018-06-10T01:49:44.299Z,20.83
2018-06-10T01:50:44.304Z,20.81
2018-06-10T01:51:44.620Z,20.88
2018-06-10T01:52:44.306Z,20.83
2018-06-10T01:53:44.375Z,20.56
2018-06-10T01:54:44.487Z,20.64
2018-06-10T01:55:44.362Z,20.73
2018-06-10T01:56:46.199Z,20.83
2018-06-10T01:57:43.953Z,20.82
2018-06-10T01:58:44.432Z,20.79
2018-06-10T01:59:44.456Z,20.85
2018-06-10T02:00:44.312Z,20.83
2018-06-10T02:01:44.350Z,20.87
2018-06-10T02:02:44.348Z,20.87
2018-06-10T02:03:44.429Z,20.82
2018-06-10T02:04:44.833Z,20.82
2018-06-10T02:05:44.448Z,20.87
2018-06-10T02:06:44.434Z,20.87
2018-06-10T02:07:44.406Z,20.87
2018-06-10T02:08:44.452Z,20.96
2018-06-10T02:09:44.880Z,20.81
2018-06-10T02:10:44.480Z,20.96
2018-06-10T02:11:44.464Z,20.88
2018-06-10T02:12:44.472Z,20.88
2018-06-10T02:13:46.329Z,20.75
2018-06-10T02:14:44.272Z,20.82
2018-06-10T02:15:44.279Z,20.85
2018-06-10T02:16:44.278Z,20.94
2018-06-10T02:17:44.338Z,20.88
2018-06-10T02:18:44.456Z,20.93
2018-06-10T02:19:44.456Z,20.91
2018-06-10T02:20:44.828Z,20.87
2018-06-10T02:21:46.212Z,20.87
2018-06-10T02:22:44.482Z,20.88
2018-06-10T02:23:44.068Z,20.79
2018-06-10T02:24:44.509Z,20.71
2018-06-10T02:25:44.475Z,20.76
2018-06-10T02:26:44.399Z,20.83
2018-06-10T02:27:44.442Z,20.83
2018-06-10T02:28:44.209Z,20.83
2018-06-10T02:29:46.201Z,20.83
2018-06-10T02:30:44.455Z,20.81
2018-06-10T02:31:44.110Z,20.82
2018-06-10T02:32:46.218Z,20.83
2018-06-10T02:33:44.522Z,20.78
2018-06-10T02:34:46.252Z,20.72
2018-06-10T02:35:44.512Z,20.78
2018-06-10T02:36:44.437Z,20.76
2018-06-10T02:37:44.467Z,20.68
2018-06-10T02:38:44.519Z,20.72
2018-06-10T02:39:44.093Z,20.68
2018-06-10T02:40:46.203Z,20.79
2018-06-10T02:41:46.143Z,20.85
2018-06-10T02:42:46.363Z,20.90
2018-06-10T02:43:44.863Z,20.90
2018-06-10T02:44:44.011Z,20.81
2018-06-10T02:45:44.616Z,20.71
2018-06-10T02:46:44.387Z,20.64
2018-06-10T02:47:44.673Z,20.60
2018-06-10T02:48:44.691Z,20.76
2018-06-10T02:49:44.681Z,20.83
2018-06-10T02:50:44.667Z,20.79
2018-06-10T02:51:44.668Z,20.63
2018-06-10T02:52:44.693Z,20.76
2018-06-10T02:53:44.664Z,20.78
2018-06-10T02:54:44.690Z,20.73
2018-06-10T02:55:44.671Z,20.79
2018-06-10T02:56:44.678Z,20.64
2018-06-10T02:57:44.702Z,20.69
2018-06-10T02:58:44.690Z,20.51
2018-06-10T02:59:44.679Z,20.53
2018-06-10T03:00:44.734Z,20.57
2018-06-10T03:01:44.677Z,20.50
2018-06-10T03:02:44.670Z,20.50
2018-06-10T03:03:44.681Z,20.56
2018-06-10T03:04:44.683Z,20.51
2018-06-10T03:05:44.734Z,20.35
2018-06-10T03:06:44.675Z,20.40
2018-06-10T03:07:44.746Z,20.51
2018-06-10T03:08:44.696Z,20.50
2018-06-10T03:09:44.858Z,20.44
2018-06-10T03:11:44.717Z,20.53
2018-06-10T03:12:44.712Z,20.51
2018-06-10T03:13:44.849Z,20.31
2018-06-10T03:14:44.702Z,20.50
2018-06-10T03:15:44.686Z,20.50
2018-06-10T03:16:44.716Z,20.34
2018-06-10T03:17:44.668Z,20.35
2018-06-10T03:18:44.672Z,20.41
2018-06-10T03:19:44.729Z,20.54
2018-06-10T03:20:46.458Z,20.51
2018-06-10T03:21:44.703Z,20.54
2018-06-10T03:22:44.715Z,20.58
2018-06-10T03:23:44.688Z,20.50
2018-06-10T03:25:44.627Z,20.44
2018-06-10T03:26:44.684Z,20.50
2018-06-10T03:27:44.710Z,20.61
2018-06-10T03:28:44.718Z,20.58
2018-06-10T03:29:44.701Z,20.57
2018-06-10T03:30:44.877Z,20.53
2018-06-10T03:31:44.885Z,20.53
2018-06-10T03:32:44.693Z,20.61
2018-06-10T03:33:45.215Z,20.61
2018-06-10T03:34:44.687Z,20.73
2018-06-10T03:35:44.756Z,20.63
2018-06-10T03:36:44.683Z,20.56
2018-06-10T03:37:44.689Z,20.51
2018-06-10T03:38:44.881Z,20.35
2018-06-10T03:39:44.671Z,20.27
2018-06-10T03:40:44.694Z,20.37
2018-06-10T03:41:44.735Z,20.35
2018-06-10T03:42:46.445Z,20.42
2018-06-10T03:43:44.754Z,20.54
2018-06-10T03:44:44.759Z,20.60
2018-06-10T03:45:44.834Z,20.51
2018-06-10T03:46:44.912Z,20.54
2018-06-10T03:47:45.219Z,20.37
2018-06-10T03:48:44.889Z,20.44
2018-06-10T03:49:44.960Z,20.50
2018-06-10T03:50:44.696Z,20.50
2018-06-10T03:51:44.871Z,20.38
2018-06-10T03:52:44.699Z,20.42
2018-06-10T03:53:44.717Z,20.42
2018-06-10T03:54:44.873Z,20.46
2018-06-10T03:55:44.670Z,20.56
2018-06-10T03:56:44.668Z,20.41
2018-06-10T03:57:44.675Z,20.51
2018-06-10T03:58:44.688Z,20.51
2018-06-10T03:59:44.690Z,20.48
2018-06-10T04:00:44.760Z,20.46
2018-06-10T04:01:44.679Z,20.50
2018-06-10T04:02:44.682Z,20.46
2018-06-10T04:03:44.204Z,20.57
2018-06-10T04:04:44.214Z,20.54
2018-06-10T04:05:44.746Z,20.50
2018-06-10T04:06:44.696Z,20.50
2018-06-10T04:07:44.697Z,20.51
2018-06-10T04:08:44.739Z,20.54
2018-06-10T04:09:44.687Z,20.63
2018-06-10T04:10:44.737Z,20.57
2018-06-10T04:11:44.766Z,20.56
2018-06-10T04:12:44.879Z,20.56
2018-06-10T04:13:44.877Z,20.51
2018-06-10T04:14:46.908Z,20.53
2018-06-10T04:15:44.696Z,20.54
2018-06-10T04:16:44.734Z,20.42
2018-06-10T04:17:44.744Z,20.51
2018-06-10T04:18:44.755Z,20.57
2018-06-10T04:19:44.781Z,20.53
2018-06-10T04:20:44.687Z,20.53
2018-06-10T04:21:44.683Z,20.57
2018-06-10T04:22:44.705Z,20.42
2018-06-10T04:23:44.690Z,20.50
2018-06-10T04:24:46.446Z,20.51
2018-06-10T04:25:44.698Z,20.54
2018-06-10T04:26:44.675Z,20.57
2018-06-10T04:27:44.698Z,20.50
2018-06-10T04:28:44.680Z,20.57
2018-06-10T04:29:44.759Z,20.42
2018-06-10T04:30:44.736Z,20.54
2018-06-10T04:31:44.746Z,20.53
2018-06-10T04:32:44.729Z,20.53
2018-06-10T04:33:44.734Z,20.48
2018-06-10T04:34:44.889Z,20.57
2018-06-10T04:35:44.759Z,20.64
2018-06-10T04:36:44.756Z,20.53
2018-06-10T04:37:44.744Z,20.42
2018-06-10T04:38:44.886Z,20.51
2018-06-10T04:39:44.763Z,20.57
2018-06-10T04:40:44.776Z,20.53
2018-06-10T04:41:44.964Z,20.50
2018-06-10T04:42:44.737Z,20.34
2018-06-10T04:43:44.796Z,20.51
2018-06-10T04:44:44.882Z,20.53
2018-06-10T04:45:44.734Z,20.44
2018-06-10T04:46:44.884Z,20.46
2018-06-10T04:47:44.891Z,20.46
2018-06-10T04:48:44.799Z,20.57
2018-06-10T04:49:44.765Z,20.56
2018-06-10T04:50:44.760Z,20.37
2018-06-10T04:51:44.910Z,20.48
2018-06-10T04:52:44.779Z,20.44
2018-06-10T04:53:44.642Z,20.41
2018-06-10T04:54:44.730Z,20.40
2018-06-10T04:55:44.750Z,20.37
2018-06-10T04:56:44.656Z,20.42
2018-06-10T04:57:44.733Z,20.48
2018-06-10T04:58:46.891Z,20.46
2018-06-10T04:59:44.747Z,20.60
2018-06-10T05:00:44.744Z,20.50
2018-06-10T05:01:44.751Z,20.60
2018-06-10T05:02:44.917Z,20.44
2018-06-10T05:03:44.766Z,20.44
2018-06-10T05:04:44.764Z,20.40
2018-06-10T05:05:44.713Z,20.26
2018-06-10T05:06:44.752Z,20.31
2018-06-10T05:07:44.787Z,20.48
2018-06-10T05:08:44.754Z,20.37
2018-06-10T05:09:44.370Z,20.16
2018-06-10T05:10:44.732Z,20.16
2018-06-10T05:11:45.348Z,20.27
2018-06-10T05:12:44.732Z,20.27
2018-06-10T05:13:44.730Z,20.48
2018-06-10T05:14:44.890Z,20.53
2018-06-10T05:15:44.741Z,20.46
2018-06-10T05:16:44.907Z,20.54
2018-06-10T05:17:44.904Z,20.50
2018-06-10T05:18:45.001Z,20.22
2018-06-10T05:19:45.543Z,20.27
2018-06-10T05:20:44.769Z,20.38
2018-06-10T05:21:44.896Z,20.46
2018-06-10T05:22:44.772Z,20.48
2018-06-10T05:23:44.796Z,20.37
2018-06-10T05:24:44.924Z,20.40
2018-06-10T05:25:44.751Z,20.48
2018-06-10T05:26:46.581Z,20.44
2018-06-10T05:27:44.755Z,20.40
2018-06-10T05:28:44.754Z,20.46
2018-06-10T05:29:44.734Z,20.46
2018-06-10T05:30:44.779Z,20.41
2018-06-10T05:31:44.787Z,20.50
2018-06-10T05:32:44.836Z,20.54
2018-06-10T05:33:44.751Z,20.51
2018-06-10T05:34:44.788Z,20.57
2018-06-10T05:35:44.787Z,20.58
2018-06-10T05:36:45.014Z,20.63
2018-06-10T05:37:44.923Z,20.60
2018-06-10T05:38:44.911Z,20.66
2018-06-10T05:39:44.366Z,20.63
2018-06-10T05:40:50.871Z,20.72
2018-06-10T05:41:46.774Z,20.61
2018-06-10T05:42:44.919Z,20.61
2018-06-10T05:43:44.421Z,20.71
2018-06-10T05:44:44.865Z,20.78
2018-06-10T05:45:44.766Z,20.71
2018-06-10T05:46:45.146Z,20.68
2018-06-10T05:47:44.704Z,20.58
2018-06-10T05:48:44.908Z,20.63
2018-06-10T05:49:44.912Z,20.66
2018-06-10T05:50:44.929Z,20.68
2018-06-10T05:51:44.940Z,20.68
2018-06-10T05:52:44.915Z,20.61
2018-06-10T05:53:44.914Z,20.72
2018-06-10T05:54:44.749Z,20.71
2018-06-10T05:55:44.935Z,20.69
2018-06-10T05:56:44.826Z,20.64
2018-06-10T05:57:44.911Z,20.54
2018-06-10T05:58:45.008Z,20.54
2018-06-10T05:59:45.012Z,20.53
2018-06-10T06:00:44.732Z,20.50
2018-06-10T06:01:44.972Z,20.61
2018-06-10T06:02:44.836Z,20.75
2018-06-10T06:03:44.864Z,20.75
2018-06-10T06:04:45.108Z,20.73
2018-06-10T06:05:44.922Z,20.78
2018-06-10T06:06:44.853Z,20.72
2018-06-10T06:07:44.915Z,20.53
2018-06-10T06:08:44.914Z,20.64
2018-06-10T06:09:45.168Z,20.61
2018-06-10T06:10:44.479Z,20.64
2018-06-10T06:12:45.272Z,20.69
2018-06-10T06:13:44.770Z,20.53
2018-06-10T06:14:45.020Z,20.64
2018-06-10T06:15:44.954Z,20.71
2018-06-10T06:16:44.938Z,20.60
2018-06-10T06:17:44.918Z,20.73
2018-06-10T06:18:44.755Z,20.51
2018-06-10T06:19:44.711Z,20.61
2018-06-10T06:20:44.787Z,20.63
2018-06-10T06:21:44.928Z,20.57
2018-06-10T06:22:44.780Z,20.69
2018-06-10T06:23:46.584Z,20.66
2018-06-10T06:24:44.926Z,20.57
2018-06-10T06:25:46.608Z,20.44
2018-06-10T06:26:44.939Z,20.60
2018-06-10T06:27:44.924Z,20.61
2018-06-10T06:28:44.781Z,20.63
2018-06-10T06:29:44.415Z,20.66
2018-06-10T06:30:45.319Z,20.53
2018-06-10T06:31:45.283Z,20.63
2018-06-10T06:32:44.845Z,20.53
2018-06-10T06:33:45.556Z,20.57
2018-06-10T06:34:44.794Z,20.60
2018-06-10T06:35:45.239Z,20.51
2018-06-10T06:36:44.761Z,20.46
2018-06-10T06:37:45.284Z,20.51
2018-06-10T06:38:44.745Z,20.56
2018-06-10T06:39:44.844Z,20.57
2018-06-10T06:40:45.284Z,20.60
2018-06-10T06:41:44.847Z,20.68
2018-06-10T06:42:46.797Z,20.82
2018-06-10T06:43:44.906Z,20.76
2018-06-10T06:44:45.219Z,20.72
2018-06-10T06:45:44.938Z,20.73
2018-06-10T06:46:44.805Z,20.63
2018-06-10T06:47:44.850Z,20.73
2018-06-10T06:48:44.841Z,20.58
2018-06-10T06:49:45.261Z,20.69
2018-06-10T06:50:45.311Z,20.78
2018-06-10T06:51:44.861Z,20.87
2018-06-10T06:52:44.877Z,20.68
2018-06-10T06:53:44.934Z,20.79
2018-06-10T06:54:44.889Z,20.72
2018-06-10T06:55:44.923Z,20.93
2018-06-10T06:56:44.938Z,20.87
2018-06-10T06:57:45.274Z,20.85
2018-06-10T06:58:45.238Z,20.90
2018-06-10T06:59:44.832Z,20.91
2018-06-10T07:00:44.762Z,21.00
2018-06-10T07:01:44.818Z,20.85
2018-06-10T07:02:44.909Z,20.94
2018-06-10T07:03:45.372Z,20.87
2018-06-10T07:04:44.941Z,20.88
2018-06-10T07:05:44.940Z,20.81
2018-06-10T07:06:44.946Z,20.79
2018-06-10T07:07:44.851Z,20.94
2018-06-10T07:08:45.322Z,20.66
2018-06-10T07:09:44.996Z,20.64
2018-06-10T07:10:45.176Z,20.81
2018-06-10T07:11:44.729Z,20.98
2018-06-10T07:12:44.751Z,21.06
2018-06-10T07:13:44.980Z,20.96
2018-06-10T07:14:44.964Z,21.06
2018-06-10T07:15:44.796Z,21.18
2018-06-10T07:16:44.948Z,21.15
2018-06-10T07:17:44.750Z,21.21
2018-06-10T07:18:44.966Z,21.27
2018-06-10T07:19:45.069Z,21.22
2018-06-10T07:20:45.458Z,21.37
2018-06-10T07:21:44.954Z,21.37
2018-06-10T07:22:45.317Z,21.27
2018-06-10T07:23:45.357Z,21.40
2018-06-10T07:24:45.490Z,21.38
2018-06-10T07:25:45.057Z,21.36
2018-06-10T07:26:47.324Z,21.36
2018-06-10T07:27:45.497Z,21.38
2018-06-10T07:28:44.986Z,21.37
2018-06-10T07:29:45.181Z,21.36
2018-06-10T07:30:45.457Z,21.46
2018-06-10T07:31:45.042Z,21.64
2018-06-10T07:32:44.955Z,21.61
2018-06-10T07:33:46.977Z,21.59
2018-06-10T07:34:46.955Z,21.55
2018-06-10T07:35:46.966Z,21.59
2018-06-10T07:36:45.495Z,21.67
2018-06-10T07:37:44.552Z,21.67
2018-06-10T07:38:44.981Z,21.61
2018-06-10T07:39:44.968Z,21.61
2018-06-10T07:40:45.483Z,21.77
2018-06-10T07:41:45.295Z,21.67
2018-06-10T07:42:45.235Z,21.66
2018-06-10T07:43:45.007Z,21.63
2018-06-10T07:44:44.865Z,21.63
2018-06-10T07:45:44.565Z,21.59
2018-06-10T07:46:58.786Z,21.61
2018-06-10T07:48:44.960Z,21.66
2018-06-10T07:49:44.962Z,21.58
2018-06-10T07:50:44.952Z,21.61
2018-06-10T07:51:44.955Z,21.86
2018-06-10T07:52:45.254Z,21.81
2018-06-10T07:53:45.191Z,21.61
2018-06-10T07:54:45.173Z,21.59
2018-06-10T07:55:46.844Z,21.67
2018-06-10T07:56:46.845Z,21.67
2018-06-10T07:57:45.509Z,21.71
2018-06-10T07:58:45.515Z,21.85
2018-06-10T07:59:45.196Z,22.04
2018-06-10T08:00:46.994Z,22.06
2018-06-10T08:01:45.243Z,21.86
2018-06-10T08:02:44.779Z,22.06
2018-06-10T08:03:45.283Z,21.96
2018-06-10T08:04:45.326Z,22.04
2018-06-10T08:05:45.828Z,22.09
2018-06-10T08:06:45.528Z,22.19
2018-06-10T08:07:44.953Z,22.20
2018-06-10T08:08:45.488Z,22.31
2018-06-10T08:09:45.490Z,22.39
2018-06-10T08:10:45.463Z,22.42
2018-06-10T08:11:45.315Z,22.52
2018-06-10T08:12:45.467Z,22.30
2018-06-10T08:13:45.296Z,22.27
2018-06-10T08:14:45.825Z,22.23
2018-06-10T08:15:45.336Z,22.39
2018-06-10T08:16:45.530Z,22.21
2018-06-10T08:17:45.492Z,22.38
2018-06-10T08:18:45.403Z,22.41
2018-06-10T08:19:45.309Z,22.39
2018-06-10T08:20:45.607Z,22.59
2018-06-10T08:21:45.021Z,22.44
2018-06-10T08:22:45.570Z,22.39
2018-06-10T08:23:45.295Z,22.12
2018-06-10T08:24:45.489Z,22.48
2018-06-10T08:25:45.537Z,22.59
2018-06-10T08:26:45.399Z,22.74
2018-06-10T08:27:45.379Z,22.52
2018-06-10T08:28:45.345Z,22.56
2018-06-10T08:29:45.365Z,22.24
2018-06-10T08:30:45.812Z,22.35
2018-06-10T08:31:45.473Z,22.46
2018-06-10T08:32:45.338Z,22.42
2018-06-10T08:33:45.475Z,22.33
2018-06-10T08:34:45.473Z,22.51
2018-06-10T08:35:45.478Z,22.60
2018-06-10T08:36:45.499Z,22.60
2018-06-10T08:37:45.927Z,22.79
2018-06-10T08:38:51.538Z,22.79
2018-06-10T08:39:45.579Z,22.76
2018-06-10T08:40:45.819Z,22.67
2018-06-10T08:41:47.100Z,22.79
2018-06-10T08:42:45.951Z,22.81
2018-06-10T08:43:45.832Z,22.89
2018-06-10T08:44:45.536Z,22.86
2018-06-10T08:45:45.303Z,22.66
2018-06-10T08:46:45.578Z,22.56
2018-06-10T08:47:44.868Z,22.48
2018-06-10T08:48:45.288Z,22.39
2018-06-10T08:49:45.581Z,22.57
2018-06-10T08:50:45.837Z,22.41
2018-06-10T08:51:45.497Z,22.54
2018-06-10T08:52:45.488Z,22.51
2018-06-10T08:53:45.503Z,22.63
2018-06-10T08:54:45.553Z,22.61
2018-06-10T08:55:45.484Z,22.70
2018-06-10T08:56:45.300Z,22.74
2018-06-10T08:57:45.861Z,22.78
2018-06-10T08:58:45.949Z,22.86
2018-06-10T08:59:45.843Z,22.91
2018-06-10T09:00:45.842Z,23.11
2018-06-10T09:01:45.325Z,23.22
2018-06-10T09:02:45.898Z,22.96
2018-06-10T09:03:45.582Z,22.91
2018-06-10T09:04:47.125Z,23.12
2018-06-10T09:05:45.605Z,23.11
2018-06-10T09:06:45.845Z,23.37
2018-06-10T09:07:45.560Z,23.29
2018-06-10T09:08:45.451Z,22.99
2018-06-10T09:09:45.308Z,23.03
2018-06-10T09:10:45.562Z,22.89
2018-06-10T09:11:45.245Z,22.85
2018-06-10T09:12:45.308Z,22.72
2018-06-10T09:13:45.556Z,22.91
2018-06-10T09:14:46.070Z,23.09
2018-06-10T09:15:45.597Z,23.07
2018-06-10T09:16:47.229Z,23.09
2018-06-10T09:17:45.331Z,23.06
2018-06-10T09:18:45.902Z,22.84
2018-06-10T09:19:45.502Z,22.96
2018-06-10T09:21:45.835Z,23.07
2018-06-10T09:22:45.854Z,22.99
2018-06-10T09:23:44.885Z,22.82
2018-06-10T09:24:45.347Z,22.91
2018-06-10T09:25:45.316Z,23.18
2018-06-10T09:26:45.386Z,23.35
2018-06-10T09:27:45.322Z,23.31
2018-06-10T09:28:45.897Z,23.37
2018-06-10T09:29:46.163Z,23.42
2018-06-10T09:30:45.817Z,23.39
2018-06-10T09:31:45.864Z,23.42
2018-06-10T09:32:45.599Z,23.37
2018-06-10T09:33:45.291Z,23.45
2018-06-10T09:34:45.866Z,23.41
2018-06-10T09:35:45.351Z,23.53
2018-06-10T09:36:47.172Z,23.64
2018-06-10T09:37:45.875Z,23.71
2018-06-10T09:38:45.542Z,23.38
2018-06-10T09:39:45.391Z,23.49
2018-06-10T09:40:45.864Z,23.62
2018-06-10T09:41:45.580Z,23.44
2018-06-10T09:42:45.455Z,23.42
2018-06-10T09:43:45.436Z,23.53
2018-06-10T09:44:45.344Z,23.41
2018-06-10T09:45:46.032Z,23.49
2018-06-10T09:46:45.851Z,23.57
2018-06-10T09:47:45.527Z,23.67
2018-06-10T09:48:45.609Z,23.82
2018-06-10T09:49:45.631Z,24.05
2018-06-10T09:50:45.954Z,23.57
2018-06-10T09:51:45.584Z,23.79
2018-06-10T09:52:45.471Z,23.81
2018-06-10T09:53:45.518Z,23.86
2018-06-10T09:54:46.145Z,23.57
2018-06-10T09:55:46.033Z,23.12
2018-06-10T09:56:45.389Z,23.29
2018-06-10T09:57:46.017Z,23.14
2018-06-10T09:58:46.075Z,23.21
2018-06-10T09:59:45.390Z,23.23
2018-06-10T10:00:45.495Z,23.06
2018-06-10T10:01:45.510Z,23.07
2018-06-10T10:02:45.530Z,23.34
2018-06-10T10:03:45.532Z,23.57
2018-06-10T10:04:45.459Z,23.64
2018-06-10T10:05:45.877Z,23.60
2018-06-10T10:06:45.977Z,23.50
2018-06-10T10:07:45.875Z,23.47
2018-06-10T10:08:45.817Z,23.53
2018-06-10T10:09:45.992Z,23.57
2018-06-10T10:10:45.563Z,23.75
2018-06-10T10:11:45.536Z,23.82
2018-06-10T10:12:47.477Z,23.57
2018-06-10T10:13:47.423Z,23.32
2018-06-10T10:14:46.200Z,23.60
2018-06-10T10:15:45.623Z,23.82
2018-06-10T10:16:46.073Z,23.82
2018-06-10T10:17:45.861Z,23.84
2018-06-10T10:18:45.864Z,23.63
2018-06-10T10:19:45.525Z,24.02
2018-06-10T10:20:46.171Z,24.16
2018-06-10T10:21:45.214Z,24.34
2018-06-10T10:22:46.075Z,24.39
2018-06-10T10:23:45.752Z,24.52
2018-06-10T10:24:45.248Z,24.63
2018-06-10T10:25:46.079Z,24.39
2018-06-10T10:26:45.872Z,24.00
2018-06-10T10:27:45.566Z,24.21
2018-06-10T10:28:45.567Z,24.41
2018-06-10T10:29:45.573Z,23.96
2018-06-10T10:30:45.793Z,24.33
2018-06-10T10:31:47.416Z,24.46
2018-06-10T10:32:45.725Z,24.30
2018-06-10T10:33:45.806Z,24.18
2018-06-10T10:34:45.761Z,24.09
2018-06-10T10:35:45.868Z,23.86
2018-06-10T10:36:45.577Z,24.18
2018-06-10T10:37:47.370Z,24.30
2018-06-10T10:38:47.552Z,24.34
2018-06-10T10:39:45.847Z,24.61
2018-06-10T10:40:46.051Z,24.61
2018-06-10T10:41:45.868Z,24.41
2018-06-10T10:42:46.136Z,24.53
2018-06-10T10:43:45.588Z,24.46
2018-06-10T10:44:46.393Z,24.41
2018-06-10T10:45:46.076Z,24.45
2018-06-10T10:46:46.066Z,24.31
2018-06-10T10:47:45.876Z,24.04
2018-06-10T10:48:46.076Z,24.21
2018-06-10T10:49:46.086Z,24.26
2018-06-10T10:50:45.876Z,24.11
2018-06-10T10:51:46.496Z,24.23
2018-06-10T10:52:46.095Z,24.61
2018-06-10T10:53:46.110Z,24.59
2018-06-10T10:54:45.935Z,24.64
2018-06-10T10:55:46.141Z,24.44
2018-06-10T10:56:46.063Z,24.30
2018-06-10T10:57:46.110Z,24.53
2018-06-10T10:58:45.607Z,24.84
2018-06-10T10:59:45.360Z,24.74
2018-06-10T11:00:46.413Z,24.64
2018-06-10T11:01:45.645Z,24.89
2018-06-10T11:02:46.048Z,25.01
2018-06-10T11:03:46.083Z,25.12
2018-06-10T11:04:48.051Z,25.11
2018-06-10T11:05:46.385Z,24.99
2018-06-10T11:06:46.057Z,24.84
2018-06-10T11:07:45.405Z,25.01
2018-06-10T11:08:46.407Z,24.68
2018-06-10T11:09:45.914Z,24.66
2018-06-10T11:10:46.502Z,24.87
2018-06-10T11:11:46.106Z,24.92
2018-06-10T11:12:45.897Z,25.17
2018-06-10T11:13:45.411Z,25.04
2018-06-10T11:14:46.607Z,24.74
2018-06-10T11:15:46.148Z,24.49
2018-06-10T11:16:45.910Z,24.52
2018-06-10T11:17:46.161Z,24.87
2018-06-10T11:18:45.947Z,25.24
2018-06-10T11:19:46.390Z,25.12
2018-06-10T11:20:46.098Z,25.16
2018-06-10T11:21:46.153Z,25.01
2018-06-10T11:22:46.152Z,24.99
2018-06-10T11:23:46.392Z,24.92
2018-06-10T11:24:46.402Z,25.22
2018-06-10T11:25:45.453Z,25.11
2018-06-10T11:26:46.198Z,25.16
2018-06-10T11:27:46.416Z,25.48
2018-06-10T11:28:46.100Z,25.34
2018-06-10T11:29:45.896Z,25.30
2018-06-10T11:30:45.917Z,25.66
2018-06-10T11:31:45.885Z,25.69
2018-06-10T11:32:46.579Z,25.81
2018-06-10T11:33:46.447Z,25.78
2018-06-10T11:34:46.140Z,25.66
2018-06-10T11:35:46.022Z,25.34
2018-06-10T11:36:45.903Z,25.57
2018-06-10T11:37:46.012Z,26.04
2018-06-10T11:38:46.036Z,25.83
2018-06-10T11:39:45.923Z,25.61
2018-06-10T11:40:45.973Z,25.48
2018-06-10T11:41:46.005Z,25.49
2018-06-10T11:42:46.572Z,25.90
2018-06-10T11:43:46.085Z,25.93
2018-06-10T11:44:46.135Z,26.06
2018-06-10T11:45:46.425Z,25.51
2018-06-10T11:46:45.945Z,25.45
2018-06-10T11:47:46.406Z,25.79
2018-06-10T11:48:46.070Z,25.83
2018-06-10T11:49:46.149Z,26.20
2018-06-10T11:50:46.419Z,26.12
2018-06-10T11:51:46.078Z,26.19
2018-06-10T11:52:46.421Z,26.19
2018-06-10T11:53:46.018Z,26.53
2018-06-10T11:54:46.080Z,26.56
2018-06-10T11:55:46.064Z,26.51
2018-06-10T11:56:46.492Z,26.42
2018-06-10T11:57:46.083Z,26.47
2018-06-10T11:58:46.536Z,26.19
2018-06-10T11:59:45.710Z,25.85
2018-06-10T12:00:45.961Z,26.24
2018-06-10T12:01:46.428Z,26.35
2018-06-10T12:02:46.143Z,26.20
2018-06-10T12:03:46.125Z,26.34
2018-06-10T12:04:46.639Z,26.27
2018-06-10T12:05:46.405Z,26.61
2018-06-10T12:06:48.083Z,26.56
2018-06-10T12:07:46.231Z,26.65
2018-06-10T12:08:46.644Z,26.00
2018-06-10T12:09:46.307Z,26.28
2018-06-10T12:10:46.266Z,26.75
2018-06-10T12:11:45.799Z,27.08
2018-06-10T12:12:46.637Z,27.03
2018-06-10T12:13:46.520Z,26.61
2018-06-10T12:14:46.463Z,26.75
2018-06-10T12:15:46.169Z,26.51
2018-06-10T12:16:48.099Z,26.51
2018-06-10T12:17:46.004Z,26.36
2018-06-10T12:18:48.583Z,26.49
2018-06-10T12:19:46.210Z,26.49
2018-06-10T12:20:46.922Z,26.56
2018-06-10T12:21:46.495Z,26.53
2018-06-10T12:22:47.056Z,26.19
2018-06-10T12:23:46.156Z,26.09
2018-06-10T12:24:46.444Z,26.08
2018-06-10T12:25:46.942Z,25.79
2018-06-10T12:26:46.630Z,25.98
2018-06-10T12:27:46.658Z,26.19
2018-06-10T12:28:46.691Z,25.93
2018-06-10T12:29:46.934Z,25.81
2018-06-10T12:30:46.234Z,26.39
2018-06-10T12:31:46.947Z,26.41
2018-06-10T12:32:46.494Z,26.46
2018-06-10T12:33:46.446Z,26.16
2018-06-10T12:34:46.411Z,26.28
2018-06-10T12:35:46.485Z,26.66
2018-06-10T12:36:46.937Z,26.81
2018-06-10T12:37:47.114Z,27.11
2018-06-10T12:38:46.442Z,26.98
2018-06-10T12:39:46.445Z,26.91
2018-06-10T12:40:46.694Z,26.93
2018-06-10T12:41:46.598Z,26.79
2018-06-10T12:42:46.656Z,27.11
2018-06-10T12:43:46.712Z,26.79
2018-06-10T12:44:46.311Z,26.98
2018-06-10T12:45:46.668Z,27.42
2018-06-10T12:46:46.490Z,27.78
2018-06-10T12:47:46.950Z,27.83
2018-06-10T12:48:47.067Z,27.77
2018-06-10T12:49:46.445Z,26.88
2018-06-10T12:50:46.964Z,26.88
2018-06-10T12:51:46.466Z,27.24
2018-06-10T12:52:47.067Z,26.97
2018-06-10T12:53:46.082Z,26.88
2018-06-10T12:54:46.466Z,27.05
2018-06-10T12:55:46.426Z,26.78
2018-06-10T12:56:46.415Z,26.50
2018-06-10T12:57:47.118Z,26.59